createdAt,value
2019-04-27T00:01:45.319Z,82.20
2019-04-27T00:04:37.523Z,82.10
2019-04-27T00:07:29.252Z,82.10
2019-04-27T00:10:26.293Z,82.50
2019-04-27T00:13:10.703Z,82.70
2019-04-27T00:16:09.925Z,82.80
2019-04-27T00:21:35.152Z,83.00
2019-04-27T00:24:23.539Z,84.00
2019-04-27T00:27:12.968Z,83.90
2019-04-27T00:29:59.933Z,84.10
2019-04-27T00:32:47.166Z,85.70
2019-04-27T00:35:35.913Z,85.50
2019-04-27T00:38:24.632Z,85.90
2019-04-27T00:41:14.247Z,85.80
2019-04-27T00:44:01.430Z,86.40
2019-04-27T00:46:48.388Z,87.10
2019-04-27T00:49:35.947Z,86.30
2019-04-27T00:52:23.996Z,86.60
2019-04-27T00:55:13.084Z,86.90
2019-04-27T00:58:01.828Z,87.10
2019-04-27T01:00:54.034Z,85.30
2019-04-27T01:03:45.500Z,88.00
2019-04-27T01:06:33.627Z,86.70
2019-04-27T01:09:23.656Z,87.10
2019-04-27T01:12:11.259Z,87.00
2019-04-27T01:14:58.673Z,88.10
2019-04-27T01:17:45.855Z,87.30
2019-04-27T01:20:33.004Z,87.00
2019-04-27T01:23:20.251Z,86.80
2019-04-27T01:26:10.830Z,87.90
2019-04-27T01:29:05.623Z,88.00
2019-04-27T01:31:52.958Z,86.90
2019-04-27T01:34:39.843Z,87.20
2019-04-27T01:37:28.517Z,87.30
2019-04-27T01:40:16.065Z,88.00
2019-04-27T01:43:02.543Z,88.30
2019-04-27T01:45:49.950Z,88.50
2019-04-27T01:48:38.677Z,88.00
2019-04-27T01:51:25.714Z,87.90
2019-04-27T01:54:14.395Z,88.10
2019-04-27T01:57:04.151Z,88.60
2019-04-27T01:59:50.682Z,88.60
2019-04-27T02:02:42.427Z,88.80
2019-04-27T02:05:31.520Z,88.50
2019-04-27T02:08:19.612Z,88.10
2019-04-27T02:11:07.375Z,88.70
2019-04-27T02:13:54.425Z,90.00
2019-04-27T02:16:41.832Z,89.60
2019-04-27T02:19:30.123Z,90.00
2019-04-27T02:22:18.533Z,90.10
2019-04-27T02:25:08.943Z,90.10
2019-04-27T02:27:59.274Z,90.50
2019-04-27T02:30:49.840Z,90.10
2019-04-27T02:33:44.693Z,90.50
2019-04-27T02:36:32.134Z,90.30
2019-04-27T02:39:21.633Z,90.30
2019-04-27T02:42:10.156Z,89.70
2019-04-27T02:44:59.769Z,90.00
2019-04-27T02:47:48.997Z,89.90
2019-04-27T02:50:35.762Z,90.20
2019-04-27T02:53:41.460Z,90.00
2019-04-27T02:56:30.480Z,90.10
2019-04-27T02:59:19.686Z,90.30
2019-04-27T03:02:10.943Z,90.50
2019-04-27T03:05:00.641Z,90.50
2019-04-27T03:07:46.968Z,90.30
2019-04-27T03:10:34.279Z,90.10
2019-04-27T03:13:22.073Z,90.00
2019-04-27T03:16:14.081Z,89.80
2019-04-27T03:19:18.101Z,90.00
2019-04-27T03:22:14.909Z,89.80
2019-04-27T03:25:11.614Z,90.00
2019-04-27T03:28:02.413Z,89.60
2019-04-27T03:30:52.238Z,90.00
2019-04-27T03:33:42.294Z,90.20
2019-04-27T03:36:26.222Z,90.20
2019-04-27T03:39:13.538Z,90.00
2019-04-27T03:42:00.185Z,90.10
2019-04-27T03:44:47.137Z,89.70
2019-04-27T03:47:35.206Z,90.00
2019-04-27T03:50:24.239Z,89.90
2019-04-27T03:53:25.398Z,90.10
2019-04-27T03:56:14.455Z,90.00
2019-04-27T03:59:06.477Z,90.70
2019-04-27T04:01:53.631Z,91.00
2019-04-27T04:04:40.821Z,90.90
2019-04-27T04:07:30.016Z,90.80
2019-04-27T04:10:19.800Z,90.90
2019-04-27T04:13:17.479Z,90.60
2019-04-27T04:16:10.852Z,90.50
2019-04-27T04:19:00.890Z,90.40
2019-04-27T04:21:50.422Z,90.20
2019-04-27T04:24:39.555Z,90.10
2019-04-27T04:27:26.163Z,90.30
2019-04-27T04:30:13.639Z,90.40
2019-04-27T04:33:01.254Z,90.40
2019-04-27T04:35:49.689Z,90.30
2019-04-27T04:38:36.828Z,90.00
2019-04-27T04:41:43.681Z,90.30
2019-04-27T04:44:31.663Z,90.10
2019-04-27T04:47:32.806Z,90.10
2019-04-27T04:50:22.796Z,90.00
2019-04-27T04:53:12.595Z,90.00
2019-04-27T04:55:57.540Z,90.00
2019-04-27T04:58:45.066Z,90.00
2019-04-27T05:01:32.190Z,89.80
2019-04-27T05:04:19.481Z,89.50
2019-04-27T05:07:06.851Z,89.20
2019-04-27T05:09:54.180Z,88.90
2019-04-27T05:12:41.480Z,89.00
2019-04-27T05:15:29.341Z,88.80
2019-04-27T05:18:16.791Z,89.10
2019-04-27T05:21:08.838Z,89.10
2019-04-27T05:23:56.233Z,89.10
2019-04-27T05:26:43.369Z,89.30
2019-04-27T05:29:31.021Z,89.50
2019-04-27T05:32:18.876Z,89.30
2019-04-27T05:35:08.704Z,89.30
2019-04-27T05:37:55.744Z,88.80
2019-04-27T05:40:42.933Z,88.50
2019-04-27T05:43:39.010Z,88.70
2019-04-27T05:46:44.601Z,88.80
2019-04-27T05:49:36.395Z,88.40
2019-04-27T05:52:29.320Z,87.90
2019-04-27T05:55:16.511Z,87.70
2019-04-27T05:58:03.811Z,88.20
2019-04-27T06:00:49.901Z,87.60
2019-04-27T06:03:39.402Z,87.20
2019-04-27T06:06:26.139Z,86.70
2019-04-27T06:09:13.175Z,86.20
2019-04-27T06:12:00.339Z,85.30
2019-04-27T06:14:49.297Z,84.70
2019-04-27T06:17:36.071Z,84.50
2019-04-27T06:20:23.468Z,84.80
2019-04-27T06:23:10.747Z,85.00
2019-04-27T06:26:01.127Z,85.60
2019-04-27T06:28:46.992Z,84.20
2019-04-27T06:31:34.163Z,84.40
2019-04-27T06:34:21.866Z,83.90
2019-04-27T06:37:09.574Z,83.50
2019-04-27T06:39:57.144Z,83.90
2019-04-27T06:42:45.357Z,82.60
2019-04-27T06:45:32.164Z,82.80
2019-04-27T06:48:19.442Z,82.00
2019-04-27T06:51:06.873Z,82.10
2019-04-27T06:53:53.860Z,81.90
2019-04-27T06:56:39.991Z,80.30
2019-04-27T06:59:28.725Z,80.60
2019-04-27T07:02:16.135Z,79.90
2019-04-27T07:05:04.856Z,79.40
2019-04-27T07:07:51.472Z,78.50
2019-04-27T07:10:39.187Z,76.90
2019-04-27T07:13:26.839Z,77.20
2019-04-27T07:16:14.080Z,77.10
2019-04-27T07:19:01.761Z,75.90
2019-04-27T07:21:49.810Z,76.00
2019-04-27T07:24:36.922Z,75.80
2019-04-27T07:27:24.184Z,75.00
2019-04-27T07:30:12.066Z,75.50
2019-04-27T07:33:00.413Z,74.70
2019-04-27T07:35:49.034Z,75.80
2019-04-27T07:38:36.537Z,75.00
2019-04-27T07:41:24.108Z,74.50
2019-04-27T07:44:15.616Z,74.10
2019-04-27T07:47:20.959Z,74.60
2019-04-27T07:50:09.696Z,74.60
2019-04-27T07:52:58.547Z,75.60
2019-04-27T07:55:45.681Z,74.30
2019-04-27T07:58:32.889Z,74.30
2019-04-27T08:01:20.611Z,74.30
2019-04-27T08:04:09.048Z,74.80
2019-04-27T08:06:56.263Z,74.60
2019-04-27T08:09:43.322Z,75.70
2019-04-27T08:12:30.351Z,76.40
2019-04-27T08:15:16.443Z,77.80
2019-04-27T08:18:03.512Z,78.40
2019-04-27T08:20:50.869Z,78.10
2019-04-27T08:23:39.408Z,78.10
2019-04-27T08:26:28.700Z,78.60
2019-04-27T08:29:20.596Z,78.70
2019-04-27T08:32:12.013Z,79.30
2019-04-27T08:34:59.525Z,78.80
2019-04-27T08:37:46.696Z,80.80
2019-04-27T08:40:32.805Z,81.10
2019-04-27T08:43:19.768Z,81.10
2019-04-27T08:46:08.623Z,82.50
2019-04-27T08:48:56.040Z,83.10
2019-04-27T08:51:56.048Z,82.30
2019-04-27T08:54:31.995Z,83.30
2019-04-27T08:57:19.595Z,84.40
2019-04-27T09:00:06.876Z,83.90
2019-04-27T09:02:54.141Z,82.00
2019-04-27T09:05:41.547Z,82.10
2019-04-27T09:08:42.962Z,82.00
2019-04-27T09:11:50.151Z,84.10
2019-04-27T09:14:40.705Z,84.40
2019-04-27T09:17:31.019Z,85.00
2019-04-27T09:20:19.843Z,86.80
2019-04-27T09:23:09.704Z,85.30
2019-04-27T09:25:56.931Z,86.20
2019-04-27T09:28:45.925Z,85.10
2019-04-27T09:31:34.683Z,83.80
2019-04-27T09:34:21.634Z,85.10
2019-04-27T09:37:09.689Z,84.30
2019-04-27T09:39:57.257Z,85.50
2019-04-27T09:42:46.369Z,85.70
2019-04-27T09:45:34.992Z,86.10
2019-04-27T09:48:22.135Z,85.70
2019-04-27T09:51:09.516Z,86.40
2019-04-27T09:53:56.782Z,84.20
2019-04-27T09:56:46.759Z,81.60
2019-04-27T09:59:34.712Z,79.80
2019-04-27T10:02:21.984Z,81.60
2019-04-27T10:05:09.484Z,81.60
2019-04-27T10:07:57.065Z,81.60
2019-04-27T10:10:46.025Z,80.40
2019-04-27T10:13:33.734Z,80.40
2019-04-27T10:16:21.179Z,79.70
2019-04-27T10:19:08.684Z,80.20
2019-04-27T10:21:56.465Z,79.50
2019-04-27T10:24:44.545Z,80.00
2019-04-27T10:27:33.313Z,80.80
2019-04-27T10:30:20.677Z,81.40
2019-04-27T10:33:09.005Z,83.00
2019-04-27T10:36:01.715Z,81.70
2019-04-27T10:38:49.602Z,80.80
2019-04-27T10:41:39.336Z,77.90
2019-04-27T10:44:26.707Z,78.20
2019-04-27T10:47:16.128Z,77.60
2019-04-27T10:50:07.042Z,78.50
2019-04-27T10:52:54.315Z,76.10
2019-04-27T10:55:42.193Z,76.00
2019-04-27T10:58:30.063Z,77.40
2019-04-27T11:01:17.674Z,76.90
2019-04-27T11:04:15.922Z,75.30
2019-04-27T11:07:07.077Z,76.00
2019-04-27T11:09:54.423Z,75.60
2019-04-27T11:12:45.852Z,77.20
2019-04-27T11:15:37.013Z,77.60
2019-04-27T11:18:23.178Z,81.10
2019-04-27T11:21:10.716Z,82.80
2019-04-27T11:23:58.238Z,83.40
2019-04-27T11:26:46.870Z,83.00
2019-04-27T11:29:36.537Z,84.80
2019-04-27T11:32:25.017Z,83.60
2019-04-27T11:35:20.537Z,84.10
2019-04-27T11:38:08.975Z,84.00
2019-04-27T11:40:56.775Z,83.10
2019-04-27T11:43:46.445Z,82.90
2019-04-27T11:46:34.117Z,83.20
2019-04-27T11:49:21.590Z,86.40
2019-04-27T11:52:09.434Z,83.60
2019-04-27T11:54:56.909Z,83.40
2019-04-27T11:57:46.922Z,83.50
2019-04-27T12:00:34.333Z,83.80
2019-04-27T12:03:22.136Z,84.00
2019-04-27T12:06:10.376Z,86.10
2019-04-27T12:08:57.794Z,85.60
2019-04-27T12:11:45.729Z,86.50
2019-04-27T12:14:36.227Z,87.30
2019-04-27T12:17:25.730Z,88.30
2019-04-27T12:20:15.935Z,87.70
2019-04-27T12:23:06.367Z,87.90
2019-04-27T12:25:56.190Z,89.20
2019-04-27T12:28:47.071Z,88.50
2019-04-27T12:31:38.863Z,88.10
2019-04-27T12:34:27.881Z,85.50
2019-04-27T12:37:15.718Z,85.00
2019-04-27T12:40:07.407Z,85.70
2019-04-27T12:42:55.029Z,84.70
2019-04-27T12:45:43.677Z,84.70
2019-04-27T12:48:37.542Z,85.80
2019-04-27T12:51:24.855Z,85.40
2019-04-27T12:54:16.180Z,85.90
2019-04-27T12:57:06.012Z,84.60
2019-04-27T12:59:57.559Z,86.10
2019-04-27T13:02:45.940Z,83.90
2019-04-27T13:05:35.853Z,84.60
2019-04-27T13:08:23.416Z,83.70
2019-04-27T13:11:11.814Z,83.50
2019-04-27T13:13:59.998Z,84.60
2019-04-27T13:16:47.990Z,84.20
2019-04-27T13:19:36.760Z,84.40
2019-04-27T13:22:25.377Z,87.30
2019-04-27T13:25:15.171Z,87.80
2019-04-27T13:28:03.225Z,89.10
2019-04-27T13:30:50.701Z,82.10
2019-04-27T13:33:38.910Z,86.00
2019-04-27T13:36:27.982Z,87.10
2019-04-27T13:39:15.897Z,90.90
2019-04-27T13:42:03.748Z,91.80
2019-04-27T13:44:51.089Z,91.50
2019-04-27T13:47:43.389Z,90.50
2019-04-27T13:50:38.647Z,91.30
2019-04-27T13:53:26.233Z,90.90
2019-04-27T13:56:17.381Z,91.10
2019-04-27T13:59:07.742Z,91.20
2019-04-27T14:01:55.371Z,90.80
2019-04-27T14:04:43.463Z,91.50
2019-04-27T14:07:31.310Z,90.80
2019-04-27T14:10:20.339Z,91.30
2019-04-27T14:13:10.910Z,90.90
2019-04-27T14:15:57.361Z,91.00
2019-04-27T14:18:45.272Z,90.50
2019-04-27T14:21:33.224Z,90.40
2019-04-27T14:24:30.273Z,90.50
2019-04-27T14:27:15.130Z,88.10
2019-04-27T14:30:04.845Z,90.60
2019-04-27T14:32:53.052Z,90.90
2019-04-27T14:35:40.879Z,90.50
2019-04-27T14:38:28.784Z,90.30
2019-04-27T14:41:16.864Z,90.00
2019-04-27T14:44:08.333Z,88.00
2019-04-27T14:46:54.950Z,88.00
2019-04-27T14:49:44.659Z,89.00
2019-04-27T14:52:34.648Z,89.10
2019-04-27T14:55:22.357Z,88.50
2019-04-27T14:58:10.619Z,87.30
2019-04-27T15:00:58.549Z,85.70
2019-04-27T15:03:46.797Z,85.40
2019-04-27T15:06:35.152Z,87.20
2019-04-27T15:09:23.996Z,81.40
2019-04-27T15:12:12.840Z,68.30
2019-04-27T15:15:01.519Z,71.90
2019-04-27T15:17:49.462Z,76.10
2019-04-27T15:20:41.661Z,75.20
2019-04-27T15:23:31.046Z,75.40
2019-04-27T15:26:20.299Z,77.20
2019-04-27T15:29:11.937Z,77.80
2019-04-27T15:32:03.153Z,74.90
2019-04-27T15:34:53.646Z,77.40
2019-04-27T15:37:42.593Z,78.40
2019-04-27T15:40:43.998Z,76.00
2019-04-27T15:43:38.524Z,80.00
2019-04-27T15:46:29.373Z,75.60
2019-04-27T15:49:13.945Z,76.60
2019-04-27T15:52:01.215Z,81.10
2019-04-27T15:54:48.419Z,80.60
2019-04-27T15:57:38.127Z,80.20
2019-04-27T16:00:28.780Z,78.10
2019-04-27T16:03:16.112Z,82.20
2019-04-27T16:06:07.500Z,82.10
2019-04-27T16:08:52.223Z,80.10
2019-04-27T16:11:41.193Z,81.20
2019-04-27T16:14:28.944Z,81.30
2019-04-27T16:17:18.187Z,81.40
2019-04-27T16:20:05.703Z,85.10
2019-04-27T16:22:56.724Z,85.40
2019-04-27T16:25:48.632Z,87.70
2019-04-27T16:28:33.249Z,86.20
2019-04-27T16:31:24.910Z,86.80
2019-04-27T16:34:10.066Z,84.50
2019-04-27T16:36:59.183Z,84.70
2019-04-27T16:39:49.404Z,85.30
2019-04-27T16:42:38.379Z,87.10
2019-04-27T16:45:27.186Z,85.90
2019-04-27T16:48:14.587Z,86.90
2019-04-27T16:51:02.572Z,84.20
2019-04-27T16:53:49.980Z,86.20
2019-04-27T16:56:38.097Z,86.90
2019-04-27T16:59:40.994Z,86.30
2019-04-27T17:02:17.305Z,84.80
2019-04-27T17:05:04.276Z,84.40
2019-04-27T17:07:51.832Z,85.40
2019-04-27T17:10:39.293Z,85.70
2019-04-27T17:13:28.056Z,84.90
2019-04-27T17:16:36.159Z,84.40
2019-04-27T17:19:28.677Z,83.60
2019-04-27T17:22:18.292Z,83.70
2019-04-27T17:25:08.835Z,82.90
2019-04-27T17:28:03.893Z,81.40
2019-04-27T17:30:47.220Z,83.70
2019-04-27T17:33:38.096Z,83.00
2019-04-27T17:36:25.282Z,83.70
2019-04-27T17:39:13.087Z,83.70
2019-04-27T17:42:00.088Z,83.80
2019-04-27T17:44:48.554Z,84.60
2019-04-27T17:47:38.750Z,86.00
2019-04-27T17:50:28.042Z,85.40
2019-04-27T17:53:18.104Z,85.30
2019-04-27T17:56:06.062Z,85.20
2019-04-27T17:58:53.883Z,86.30
2019-04-27T18:01:41.834Z,86.40
2019-04-27T18:04:32.926Z,85.50
2019-04-27T18:07:19.109Z,86.80
2019-04-27T18:10:08.736Z,86.10
2019-04-27T18:12:58.156Z,85.00
2019-04-27T18:15:45.708Z,87.10
2019-04-27T18:18:37.989Z,86.60
2019-04-27T18:21:28.280Z,86.70
2019-04-27T18:24:18.623Z,86.10
2019-04-27T18:27:10.603Z,86.60
2019-04-27T18:30:10.462Z,86.90
2019-04-27T18:32:59.170Z,86.70
2019-04-27T18:35:46.157Z,87.00
2019-04-27T18:38:35.571Z,87.70
2019-04-27T18:41:23.417Z,87.80
2019-04-27T18:44:11.599Z,87.60
2019-04-27T18:47:02.162Z,87.30
2019-04-27T18:49:59.837Z,86.80
2019-04-27T18:52:49.567Z,87.70
2019-04-27T18:55:37.974Z,87.50
2019-04-27T18:58:25.405Z,87.60
2019-04-27T19:01:14.880Z,87.80
2019-04-27T19:04:03.642Z,87.40
2019-04-27T19:06:50.987Z,87.80
2019-04-27T19:09:38.607Z,87.70
2019-04-27T19:12:25.971Z,88.50
2019-04-27T19:15:13.500Z,88.10
2019-04-27T19:18:01.905Z,87.80
2019-04-27T19:20:50.637Z,86.70
2019-04-27T19:23:40.296Z,87.70
2019-04-27T19:26:48.468Z,87.80
2019-04-27T19:29:39.674Z,87.00
2019-04-27T19:32:28.238Z,85.60
2019-04-27T19:35:19.752Z,86.20
2019-04-27T19:38:05.524Z,86.20
2019-04-27T19:40:53.027Z,86.10
2019-04-27T19:43:40.573Z,84.20
2019-04-27T19:46:28.584Z,85.10
2019-04-27T19:49:16.813Z,84.20
2019-04-27T19:52:04.939Z,84.70
2019-04-27T19:54:52.317Z,86.20
2019-04-27T19:57:42.075Z,86.80
2019-04-27T20:00:48.398Z,85.80
2019-04-27T20:03:43.965Z,87.10
2019-04-27T20:06:31.234Z,86.40
2019-04-27T20:09:36.461Z,86.50
2019-04-27T20:12:24.120Z,85.50
2019-04-27T20:15:12.212Z,87.00
2019-04-27T20:18:00.847Z,87.00
2019-04-27T20:20:48.186Z,87.10
2019-04-27T20:23:35.986Z,86.60
2019-04-27T20:26:23.502Z,87.80
2019-04-27T20:29:11.816Z,87.10
2019-04-27T20:32:01.480Z,87.10
2019-04-27T20:34:48.698Z,87.00
2019-04-27T20:37:36.842Z,87.00
2019-04-27T20:40:24.131Z,86.60
2019-04-27T20:43:12.246Z,87.10
2019-04-27T20:46:00.919Z,87.60
2019-04-27T20:48:48.755Z,87.00
2019-04-27T20:51:52.880Z,86.80
2019-04-27T20:54:41.343Z,87.00
2019-04-27T20:57:28.167Z,87.90
2019-04-27T21:00:17.620Z,85.90
2019-04-27T21:03:12.528Z,86.90
2019-04-27T21:06:17.167Z,86.50
2019-04-27T21:09:10.889Z,87.50
2019-04-27T21:11:58.155Z,86.20
2019-04-27T21:14:46.443Z,87.50
2019-04-27T21:17:34.553Z,87.20
2019-04-27T21:20:22.028Z,87.20
2019-04-27T21:23:09.400Z,86.90
2019-04-27T21:25:56.437Z,87.10
2019-04-27T21:28:43.927Z,87.90
2019-04-27T21:31:31.672Z,86.60
2019-04-27T21:34:19.095Z,85.80
2019-04-27T21:37:06.269Z,87.20
2019-04-27T21:39:55.279Z,86.70
2019-04-27T21:42:42.880Z,87.40
2019-04-27T21:45:31.789Z,88.10
2019-04-27T21:48:21.060Z,87.50
2019-04-27T21:51:08.006Z,87.30
2019-04-27T21:53:59.947Z,86.20
2019-04-27T21:56:47.177Z,87.10
2019-04-27T21:59:34.643Z,87.40
2019-04-27T22:02:22.264Z,87.20
2019-04-27T22:05:12.165Z,87.30
2019-04-27T22:07:58.034Z,86.80
2019-04-27T22:10:44.069Z,85.90
2019-04-27T22:13:31.328Z,87.20
2019-04-27T22:16:18.867Z,87.60
2019-04-27T22:19:06.834Z,88.00
2019-04-27T22:21:54.359Z,88.00
2019-04-27T22:24:43.058Z,87.40
2019-04-27T22:27:30.959Z,87.10
2019-04-27T22:30:18.033Z,87.60
2019-04-27T22:33:05.444Z,86.70
2019-04-27T22:35:53.308Z,87.60
2019-04-27T22:38:41.266Z,87.70
2019-04-27T22:41:31.402Z,87.40
2019-04-27T22:44:23.579Z,87.20
2019-04-27T22:47:11.119Z,87.10
2019-04-27T22:49:59.587Z,87.80
2019-04-27T22:52:46.994Z,87.80
2019-04-27T22:55:36.814Z,87.70
2019-04-27T22:58:24.323Z,87.30
2019-04-27T23:01:13.267Z,87.50
2019-04-27T23:04:02.085Z,87.50
2019-04-27T23:06:49.477Z,87.70
2019-04-27T23:09:36.963Z,87.90
2019-04-27T23:12:24.496Z,87.90
2019-04-27T23:15:13.573Z,87.60
2019-04-27T23:18:00.898Z,88.00
2019-04-27T23:20:47.882Z,88.00
2019-04-27T23:23:35.237Z,88.20
2019-04-27T23:26:22.555Z,88.80
2019-04-27T23:29:13.757Z,88.60
2019-04-27T23:32:01.550Z,88.10
2019-04-27T23:34:48.572Z,87.90
2019-04-27T23:37:36.086Z,88.50
2019-04-27T23:40:23.311Z,88.00
2019-04-27T23:43:11.519Z,88.40
2019-04-27T23:45:59.445Z,88.20
2019-04-27T23:48:46.423Z,88.00
2019-04-27T23:51:41.744Z,88.40
2019-04-27T23:54:28.660Z,86.90
2019-04-27T23:57:16.133Z,87.00
